createdAt,value
2022-10-09T00:08:32.147Z,3.00
2022-10-09T00:13:36.175Z,3.40
2022-10-09T00:18:39.585Z,3.30
2022-10-09T00:23:42.698Z,2.80
2022-10-09T00:28:47.476Z,3.40
2022-10-09T00:33:51.159Z,3.00
2022-10-09T00:38:55.842Z,3.30
2022-10-09T00:44:04.128Z,3.10
2022-10-09T00:49:28.230Z,3.10
2022-10-09T00:54:35.587Z,3.50
2022-10-09T00:59:40.497Z,4.70
2022-10-09T01:04:43.997Z,3.00
2022-10-09T01:10:00.307Z,3.30
2022-10-09T01:15:19.800Z,2.60
2022-10-09T01:20:42.565Z,2.60
2022-10-09T01:25:53.454Z,2.90
2022-10-09T01:31:04.658Z,2.50
2022-10-09T01:36:10.208Z,2.50
2022-10-09T01:41:13.422Z,2.60
2022-10-09T01:46:27.882Z,2.40
2022-10-09T01:51:42.056Z,2.60
2022-10-09T01:56:49.644Z,2.50
2022-10-09T02:01:53.292Z,2.80
2022-10-09T02:06:57.313Z,3.00
2022-10-09T02:12:05.437Z,2.60
2022-10-09T02:17:18.580Z,3.10
2022-10-09T02:22:26.904Z,2.80
2022-10-09T02:27:30.933Z,3.00
2022-10-09T02:32:34.244Z,2.80
2022-10-09T02:37:37.554Z,2.60
2022-10-09T02:42:40.761Z,2.60
2022-10-09T02:47:43.867Z,3.60
2022-10-09T02:52:47.248Z,3.50
2022-10-09T02:57:50.590Z,3.20
2022-10-09T03:07:59.137Z,3.30
2022-10-09T03:13:02.367Z,3.00
2022-10-09T03:18:05.471Z,3.10
2022-10-09T03:23:08.679Z,2.90
2022-10-09T03:28:11.785Z,2.90
2022-10-09T03:33:14.993Z,2.80
2022-10-09T03:38:18.208Z,3.00
2022-10-09T03:43:21.412Z,3.50
2022-10-09T03:48:25.647Z,3.10
2022-10-09T03:53:29.260Z,3.30
2022-10-09T03:58:32.673Z,3.10
2022-10-09T04:08:39.099Z,3.00
2022-10-09T04:13:42.501Z,3.00
2022-10-09T04:18:46.118Z,2.90
2022-10-09T04:23:49.203Z,2.90
2022-10-09T04:28:52.332Z,3.00
2022-10-09T04:33:56.359Z,2.90
2022-10-09T04:38:59.565Z,3.10
2022-10-09T04:44:03.083Z,3.00
2022-10-09T04:49:06.288Z,4.40
2022-10-09T04:54:09.606Z,3.20
2022-10-09T04:59:12.911Z,3.10
2022-10-09T05:04:16.016Z,3.10
2022-10-09T05:09:19.838Z,3.30
2022-10-09T05:19:26.089Z,3.10
2022-10-09T05:24:29.359Z,3.30
2022-10-09T05:29:33.593Z,3.50
2022-10-09T05:34:36.696Z,3.90
2022-10-09T05:39:39.807Z,3.40
2022-10-09T05:44:42.964Z,3.10
2022-10-09T05:49:46.218Z,4.40
2022-10-09T05:54:50.454Z,3.10
2022-10-09T05:59:54.038Z,2.90
2022-10-09T06:04:57.156Z,2.60
2022-10-09T06:10:00.814Z,4.10
2022-10-09T06:15:06.509Z,2.90
2022-10-09T06:20:09.946Z,3.10
2022-10-09T06:25:13.548Z,2.70
2022-10-09T06:30:16.825Z,3.30
2022-10-09T06:35:20.611Z,3.00
2022-10-09T06:40:23.838Z,2.70
2022-10-09T06:50:30.124Z,2.60
2022-10-09T06:55:33.290Z,2.70
2022-10-09T07:00:36.775Z,2.70
2022-10-09T07:05:40.390Z,2.30
2022-10-09T07:10:44.714Z,2.20
2022-10-09T07:15:48.271Z,2.60
2022-10-09T07:20:51.619Z,2.00
2022-10-09T07:25:55.012Z,2.10
2022-10-09T07:30:58.334Z,2.40
2022-10-09T07:36:03.791Z,2.40
2022-10-09T07:41:09.700Z,1.80
2022-10-09T07:46:15.876Z,2.00
2022-10-09T07:51:23.807Z,1.90
2022-10-09T07:56:30.183Z,2.00
2022-10-09T08:01:36.612Z,2.00
2022-10-09T08:06:40.470Z,2.00
2022-10-09T08:11:44.830Z,1.80
2022-10-09T08:16:48.826Z,1.90
2022-10-09T08:21:52.119Z,1.70
2022-10-09T08:26:55.176Z,2.20
2022-10-09T08:31:58.510Z,2.00
2022-10-09T08:37:01.633Z,1.90
2022-10-09T08:42:06.432Z,1.70
2022-10-09T08:47:17.222Z,1.90
2022-10-09T08:52:52.250Z,1.90
2022-10-09T08:57:57.800Z,1.80
2022-10-09T09:03:26.569Z,1.90
2022-10-09T09:09:08.175Z,1.90
2022-10-09T09:14:23.419Z,1.60
2022-10-09T09:19:39.359Z,1.90
2022-10-09T09:24:51.760Z,1.70
2022-10-09T09:30:16.731Z,1.80
2022-10-09T09:35:30.834Z,1.70
2022-10-09T09:40:37.113Z,1.40
2022-10-09T09:45:45.384Z,1.90
2022-10-09T09:51:10.069Z,1.70
2022-10-09T09:56:17.979Z,1.90
2022-10-09T10:01:22.962Z,1.90
2022-10-09T10:06:26.132Z,1.50
2022-10-09T10:11:30.997Z,1.90
2022-10-09T10:16:38.592Z,3.20
2022-10-09T10:21:49.334Z,3.60
2022-10-09T10:26:56.909Z,2.40
2022-10-09T10:32:07.100Z,1.70
2022-10-09T10:37:13.426Z,4.00
2022-10-09T10:42:58.660Z,1.80
2022-10-09T10:48:05.470Z,1.90
2022-10-09T10:53:42.269Z,1.80
2022-10-09T10:59:01.485Z,2.40
2022-10-09T11:04:23.568Z,2.00
2022-10-09T11:09:39.474Z,1.70
2022-10-09T11:14:51.852Z,2.50
2022-10-09T11:20:14.941Z,3.60
2022-10-09T11:25:35.658Z,2.50
2022-10-09T11:30:47.219Z,1.80
2022-10-09T11:36:05.246Z,2.00
2022-10-09T11:41:09.173Z,2.30
2022-10-09T11:46:31.319Z,4.40
2022-10-09T11:51:45.047Z,2.80
2022-10-09T11:56:59.937Z,2.00
2022-10-09T12:02:25.330Z,1.70
2022-10-09T12:07:36.519Z,2.10
2022-10-09T12:12:40.003Z,3.20
2022-10-09T12:17:50.364Z,2.00
2022-10-09T12:23:21.729Z,3.70
2022-10-09T12:28:34.775Z,3.00
2022-10-09T12:33:46.149Z,1.80
2022-10-09T12:38:49.333Z,1.80
2022-10-09T12:43:55.171Z,1.80
2022-10-09T12:49:00.789Z,1.90
2022-10-09T12:54:10.152Z,2.10
2022-10-09T12:59:15.469Z,1.70
2022-10-09T13:04:34.000Z,2.00
2022-10-09T13:09:40.802Z,1.90
2022-10-09T13:14:45.144Z,2.00
2022-10-09T13:19:54.232Z,2.20
2022-10-09T13:24:59.251Z,2.10
2022-10-09T13:30:05.993Z,2.00
2022-10-09T13:35:12.462Z,2.10
2022-10-09T13:40:20.373Z,3.10
2022-10-09T13:45:23.942Z,3.30
2022-10-09T13:50:27.247Z,3.00
2022-10-09T13:55:30.991Z,3.50
2022-10-09T14:00:37.565Z,1.60
2022-10-09T14:05:42.196Z,1.90
2022-10-09T14:10:45.645Z,2.50
2022-10-09T14:15:48.959Z,2.40
2022-10-09T14:20:52.290Z,1.50
2022-10-09T14:25:55.779Z,2.20
2022-10-09T14:30:59.642Z,2.50
2022-10-09T14:36:13.014Z,2.10
2022-10-09T14:41:20.260Z,1.60
2022-10-09T14:46:24.766Z,1.40
2022-10-09T14:51:32.496Z,1.70
2022-10-09T14:56:38.998Z,1.90
2022-10-09T15:01:42.972Z,1.80
2022-10-09T15:06:46.389Z,1.30
2022-10-09T15:11:49.978Z,1.70
2022-10-09T15:16:53.429Z,1.50
2022-10-09T15:21:57.047Z,2.10
2022-10-09T15:27:00.510Z,1.30
2022-10-09T15:32:04.331Z,1.50
2022-10-09T15:37:07.567Z,1.60
2022-10-09T15:42:10.765Z,1.70
2022-10-09T15:52:20.540Z,2.20
2022-10-09T15:57:24.284Z,1.80
2022-10-09T16:02:28.335Z,1.80
2022-10-09T16:07:33.892Z,1.70
2022-10-09T16:12:37.437Z,1.70
2022-10-09T16:17:41.427Z,26.10
2022-10-09T16:22:44.881Z,8.50
2022-10-09T16:27:48.364Z,8.20
2022-10-09T16:32:52.345Z,7.50
2022-10-09T16:37:56.056Z,4.60
2022-10-09T16:48:06.244Z,4.50
2022-10-09T16:53:09.960Z,21.90
2022-10-09T16:58:13.203Z,13.80
2022-10-09T17:03:16.369Z,12.60
2022-10-09T17:08:19.596Z,16.70
2022-10-09T17:13:22.836Z,17.00
2022-10-09T17:23:29.733Z,18.80
2022-10-09T17:28:35.306Z,20.30
2022-10-09T17:33:43.297Z,18.10
2022-10-09T17:38:46.882Z,27.50
2022-10-09T17:43:52.289Z,24.70
2022-10-09T17:48:57.124Z,25.50
2022-10-09T17:54:09.525Z,31.60
2022-10-09T17:59:16.486Z,33.10
2022-10-09T18:04:20.526Z,35.50
2022-10-09T18:09:24.474Z,33.60
2022-10-09T18:24:36.664Z,44.30
2022-10-09T18:29:39.888Z,41.90
2022-10-09T18:34:46.623Z,38.30
2022-10-09T18:39:50.396Z,29.40
2022-10-09T18:44:53.729Z,32.30
2022-10-09T18:50:01.257Z,43.40
2022-10-09T18:55:10.222Z,36.50
2022-10-09T19:00:17.013Z,47.70
2022-10-09T19:05:20.661Z,30.40
2022-10-09T19:10:24.386Z,20.90
2022-10-09T19:15:30.346Z,28.20
2022-10-09T19:20:39.616Z,33.40
2022-10-09T19:25:51.430Z,26.40
2022-10-09T19:30:55.033Z,33.90
2022-10-09T19:41:08.724Z,35.40
2022-10-09T19:46:17.652Z,69.00
2022-10-09T19:51:24.400Z,45.50
2022-10-09T19:56:31.572Z,54.90
2022-10-09T20:01:38.171Z,52.70
2022-10-09T20:06:43.090Z,50.40
2022-10-09T20:11:46.654Z,60.80
2022-10-09T20:16:50.346Z,49.60
2022-10-09T20:26:59.005Z,41.40
2022-10-09T20:37:05.614Z,52.20
2022-10-09T20:42:09.429Z,50.00
2022-10-09T20:47:12.472Z,55.50
2022-10-09T20:52:15.515Z,56.10
2022-10-09T20:57:19.581Z,57.50
2022-10-09T21:02:22.796Z,54.20
2022-10-09T21:07:26.038Z,50.40
2022-10-09T21:12:29.787Z,46.00
2022-10-09T21:17:33.015Z,53.90
2022-10-09T21:22:36.064Z,62.70
2022-10-09T21:27:39.422Z,69.70
2022-10-09T21:32:43.867Z,61.20
2022-10-09T21:37:47.581Z,62.20
2022-10-09T21:42:50.779Z,54.60
2022-10-09T21:47:54.303Z,53.70
2022-10-09T21:52:57.412Z,48.40
2022-10-09T21:58:00.514Z,48.50
2022-10-09T22:03:03.840Z,43.60
2022-10-09T22:08:07.034Z,36.80
2022-10-09T22:13:10.347Z,38.60
2022-10-09T22:18:13.451Z,39.80
2022-10-09T22:23:19.014Z,41.50
2022-10-09T22:28:22.484Z,33.40
2022-10-09T22:33:25.737Z,31.60
2022-10-09T22:38:28.788Z,32.80
2022-10-09T22:43:31.997Z,30.20
2022-10-09T22:48:35.547Z,32.50
2022-10-09T22:53:40.269Z,34.40
2022-10-09T22:58:44.690Z,35.10
2022-10-09T23:03:47.854Z,37.70
2022-10-09T23:08:51.454Z,41.00
2022-10-09T23:13:57.602Z,35.40
2022-10-09T23:19:06.520Z,30.80
2022-10-09T23:24:15.507Z,27.60
2022-10-09T23:29:20.902Z,26.50
2022-10-09T23:34:23.996Z,28.70
2022-10-09T23:39:27.203Z,32.90
2022-10-09T23:44:30.213Z,29.00
2022-10-09T23:49:33.314Z,33.00
2022-10-09T23:54:36.930Z,31.00
2022-10-09T23:59:40.139Z,26.90
